Terminal Aerodrome Forecast
Issued by NWS Pocatello, ID

Home | Current Version | Previous Version | Text Only | Print | Product List | Glossary On
Versions: 1 2 3 4 5 6 7 8 9 10 11 12 13 14 15 16 17 18 19 20 21 22
000
FTUS45 KPIH 011800 AAA
TAFPIH
TAF AMD
KPIH 011853Z 0119/0218 VRB04KT P6SM FEW008 SCT025 BKN090
     FM012100 23007KT P6SM SCT030 BKN100
     FM020300 19015KT P6SM VCSH SCT010 BKN050 OVC080
     FM020700 23010KT P6SM VCSH BKN008 OVC035=

USA.gov is the U.S. government's official web portal to all federal, state and local government web resources and services.